Time;durP1;ratioP1;P1;durP2;ratioP2;P2;SDS_P1;SDS_P2;PMS_P1;PMS_P2;Temp;Humidity;BMP_temperature;BMP_pressure;BME280_temperature;BME280_humidity;BME280_pressure;Samples;Min_cycle;Max_cycle;Signal;HPM_P1;HPM_P2
2024/02/20 00:00:45;;;;;;;;;4.00;3.50;;;;;5.32;96.02;100468.27;114607;243;39402;-54
2024/02/20 00:03:39;;;;;;;;;4.75;4.00;;;;;5.33;96.08;100467.84;114446;242;161191;-54
2024/02/20 00:06:14;;;;;;;;;4.00;3.00;;;;;5.34;95.96;100468.62;114594;243;40587;-54
2024/02/20 00:08:48;;;;;;;;;3.00;3.00;;;;;5.21;96.36;100465.98;114443;241;160575;-50
2024/02/20 00:11:21;;;;;;;;;3.00;2.00;;;;;5.17;96.30;100469.80;114574;243;40303;-53
2024/02/20 00:13:55;;;;;;;;;5.00;4.00;;;;;5.13;96.46;100475.01;114445;241;161397;-54
2024/02/20 00:16:30;;;;;;;;;4.00;2.75;;;;;5.14;96.48;100474.36;114563;243;39443;-53
2024/02/20 00:19:05;;;;;;;;;3.00;2.75;;;;;5.13;96.46;100472.58;114577;243;39489;-55
2024/02/20 00:21:40;;;;;;;;;5.75;3.00;;;;;5.13;96.46;100473.94;114424;241;161742;-53
2024/02/20 00:24:14;;;;;;;;;3.00;3.00;;;;;5.15;96.47;100475.01;114315;243;41274;-53
2024/02/20 00:26:49;;;;;;;;;3.00;3.00;;;;;5.15;96.61;100476.25;114416;241;161163;-51
2024/02/20 00:29:23;;;;;;;;;4.75;4.00;;;;;5.18;96.63;100473.49;114539;242;40257;-50
2024/02/20 00:31:57;;;;;;;;;5.67;4.00;;;;;5.20;96.58;100471.83;114395;241;161544;-53
2024/02/20 00:34:31;;;;;;;;;3.00;2.50;;;;;5.21;96.68;100472.23;114546;243;39691;-54
2024/02/20 00:37:05;;;;;;;;;4.00;3.00;;;;;5.19;96.77;100473.35;114594;242;40249;-52
2024/02/20 00:39:40;;;;;;;;;2.00;1.25;;;;;5.19;96.92;100470.84;114370;243;161076;-51
2024/02/20 00:42:14;;;;;;;;;5.00;3.33;;;;;5.18;97.01;100472.18;114559;242;39507;-50
2024/02/20 00:44:47;;;;;;;;;5.50;3.00;;;;;5.20;96.95;100471.14;114391;239;161451;-50
2024/02/20 00:47:21;;;;;;;;;5.25;3.75;;;;;5.22;97.01;100471.61;114562;242;39601;-50
2024/02/20 00:49:55;;;;;;;;;7.00;5.33;;;;;5.22;96.91;100468.64;114446;239;161514;-50
2024/02/20 00:52:29;;;;;;;;;3.00;2.00;;;;;5.26;96.94;100465.52;114555;243;41147;-51
2024/02/20 00:55:03;;;;;;;;;4.00;3.25;;;;;5.25;97.02;100461.73;114570;243;41063;-51
2024/02/20 00:57:37;;;;;;;;;3.75;2.50;;;;;5.28;97.01;100458.84;114400;239;161851;-50
2024/02/20 01:00:14;;;;;;;;;6.75;4.00;;;;;5.24;97.15;100456.27;114501;242;39395;-51
2024/02/20 01:02:48;;;;;;;;;4.75;4.00;;;;;5.25;97.10;100456.32;114407;239;161199;-50
2024/02/20 01:05:22;;;;;;;;;4.00;3.00;;;;;5.25;97.14;100458.23;114532;242;39808;-50
2024/02/20 01:07:57;;;;;;;;;2.25;2.00;;;;;5.28;97.03;100456.33;114421;242;162209;-51
2024/02/20 01:10:31;;;;;;;;;2.00;2.00;;;;;5.26;97.23;100455.13;114527;242;40495;-51
2024/02/20 01:13:05;;;;;;;;;6.00;4.25;;;;;5.28;97.22;100452.83;114535;243;41082;-51
2024/02/20 01:15:39;;;;;;;;;3.33;2.67;;;;;5.29;97.24;100451.97;114399;241;161064;-51
2024/02/20 01:18:13;;;;;;;;;5.00;4.00;;;;;5.22;97.41;100451.11;114539;242;40287;-53
2024/02/20 01:20:47;;;;;;;;;6.00;4.00;;;;;5.20;97.54;100444.13;114407;240;161114;-50
2024/02/20 01:23:21;;;;;;;;;5.00;5.00;;;;;5.26;97.42;100444.98;114568;242;39657;-52
2024/02/20 01:25:55;;;;;;;;;7.33;5.00;;;;;5.28;97.48;100439.02;114448;241;161408;-52
2024/02/20 01:28:29;;;;;;;;;8.00;6.00;;;;;5.27;97.55;100442.14;114568;243;39877;-51
2024/02/20 01:31:02;;;;;;;;;7.00;4.00;;;;;5.28;97.63;100441.02;114567;242;40945;-51
2024/02/20 01:33:36;;;;;;;;;5.00;4.00;;;;;5.32;97.57;100439.23;114427;241;161318;-54
2024/02/20 01:36:11;;;;;;;;;6.00;5.00;;;;;5.32;97.74;100437.73;114599;242;40505;-54
2024/02/20 01:38:45;;;;;;;;;6.00;4.00;;;;;5.36;97.78;100438.05;114400;241;161500;-51
2024/02/20 01:41:20;;;;;;;;;7.67;6.00;;;;;5.43;97.69;100438.11;114551;243;39115;-52
2024/02/20 01:43:53;;;;;;;;;11.00;7.00;;;;;5.45;97.73;100434.71;114414;241;161383;-49
2024/02/20 01:46:28;;;;;;;;;8.00;5.25;;;;;5.46;97.82;100436.33;114508;242;40930;-53
2024/02/20 01:49:02;;;;;;;;;5.25;4.00;;;;;5.50;97.92;100439.71;114584;242;39963;-54
2024/02/20 01:51:37;;;;;;;;;7.00;6.00;;;;;5.53;97.90;100437.73;114450;241;161351;-53
2024/02/20 01:54:10;;;;;;;;;7.00;5.00;;;;;5.54;97.94;100439.05;114575;242;41076;-54
2024/02/20 01:56:45;;;;;;;;;6.00;4.25;;;;;5.58;97.93;100435.83;114426;241;161615;-50
2024/02/20 01:59:19;;;;;;;;;7.00;6.00;;;;;5.62;97.90;100437.77;114540;242;40081;-50
2024/02/20 02:01:52;;;;;;;;;6.00;5.00;;;;;5.66;97.86;100440.58;114434;241;161562;-51
2024/02/20 02:04:26;;;;;;;;;6.00;4.00;;;;;5.63;97.92;100442.98;114510;243;40121;-51
2024/02/20 02:07:00;;;;;;;;;6.75;5.00;;;;;5.68;98.00;100441.79;114591;243;40204;-53
2024/02/20 02:09:34;;;;;;;;;5.00;4.00;;;;;5.72;97.89;100436.83;114401;241;161976;-53
2024/02/20 02:12:09;;;;;;;;;4.00;3.75;;;;;5.73;97.88;100431.17;114306;243;39715;-50
2024/02/20 02:14:47;;;;;;;;;7.00;5.00;;;;;5.74;97.98;100429.20;114443;241;161110;-50
2024/02/20 02:17:21;;;;;;;;;6.50;5.00;;;;;5.75;98.03;100433.33;114605;242;39647;-54
2024/02/20 02:19:55;;;;;;;;;6.00;5.00;;;;;5.75;97.92;100429.92;114485;232;164569;-54
2024/02/20 02:22:29;;;;;;;;;8.00;6.00;;;;;5.77;98.01;100428.99;114607;243;39730;-54
2024/02/20 02:25:06;;;;;;;;;9.00;6.00;;;;;5.79;97.91;100432.23;114644;243;39082;-54
2024/02/20 02:27:40;;;;;;;;;5.50;4.50;;;;;5.80;97.99;100433.20;114410;241;161096;-51
2024/02/20 02:30:16;;;;;;;;;8.25;6.00;;;;;5.81;98.06;100429.08;114566;243;40345;-51
2024/02/20 02:32:51;;;;;;;;;5.00;4.00;;;;;5.84;97.99;100428.09;114388;241;161388;-51
2024/02/20 02:35:24;;;;;;;;;7.00;5.00;;;;;5.85;98.11;100430.47;114555;243;40471;-51
2024/02/20 02:38:00;;;;;;;;;6.00;5.00;;;;;5.84;98.07;100428.27;114449;241;161383;-50
2024/02/20 02:40:35;;;;;;;;;5.00;4.00;;;;;5.82;98.24;100428.45;114525;243;39656;-50
2024/02/20 02:43:09;;;;;;;;;4.00;3.75;;;;;5.80;98.29;100428.34;114573;243;38949;-53
2024/02/20 02:45:43;;;;;;;;;5.00;4.25;;;;;5.82;98.30;100429.54;114379;241;161377;-53
2024/02/20 02:48:16;;;;;;;;;8.00;7.00;;;;;5.84;98.32;100423.08;114566;242;40376;-51
2024/02/20 02:50:51;;;;;;;;;6.25;4.00;;;;;5.87;98.23;100428.32;114445;241;161321;-51
2024/02/20 02:53:25;;;;;;;;;6.00;4.00;;;;;5.89;98.24;100429.00;114583;243;39586;-50
2024/02/20 02:55:59;;;;;;;;;6.25;4.00;;;;;5.89;98.25;100429.20;114429;241;161291;-50
2024/02/20 02:58:34;;;;;;;;;6.00;5.00;;;;;5.88;98.19;100428.96;114241;243;41234;-50
2024/02/20 03:01:09;;;;;;;;;5.00;5.00;;;;;5.92;98.28;100429.77;114581;242;39870;-50
2024/02/20 03:03:44;;;;;;;;;4.25;3.00;;;;;5.90;98.37;100428.23;114799;241;161687;-51
2024/02/20 03:06:18;;;;;;;;;7.00;5.00;;;;;5.87;98.42;100425.86;114589;242;41053;-51
2024/02/20 03:08:52;;;;;;;;;7.00;4.00;;;;;5.84;98.65;100420.46;114400;241;161400;-50
2024/02/20 03:11:25;;;;;;;;;4.50;3.00;;;;;5.80;98.74;100424.39;114717;243;39295;-53
2024/02/20 03:13:59;;;;;;;;;5.00;4.00;;;;;5.85;98.76;100421.29;114454;241;161542;-54
2024/02/20 03:16:33;;;;;;;;;4.00;4.00;;;;;5.88;98.67;100420.89;114569;243;39789;-51
2024/02/20 03:19:07;;;;;;;;;5.75;4.50;;;;;5.92;98.48;100424.06;114585;243;38993;-51
2024/02/20 03:21:41;;;;;;;;;7.75;5.75;;;;;5.95;98.53;100420.75;114407;240;161245;-51
2024/02/20 03:24:15;;;;;;;;;6.00;5.00;;;;;6.01;98.59;100420.98;114568;243;40914;-52
2024/02/20 03:26:49;;;;;;;;;8.00;6.75;;;;;6.02;98.35;100422.73;114400;241;161143;-50
2024/02/20 03:29:24;;;;;;;;;5.00;3.00;;;;;5.98;98.59;100429.05;114536;242;39498;-50
2024/02/20 03:31:59;;;;;;;;;6.00;5.00;;;;;5.95;98.64;100427.02;114431;241;161899;-53
2024/02/20 03:34:33;;;;;;;;;5.00;4.00;;;;;5.97;98.59;100425.48;114542;242;40885;-53
2024/02/20 03:37:07;;;;;;;;;10.00;7.00;;;;;6.01;98.54;100422.06;114558;242;39666;-54
2024/02/20 03:39:41;;;;;;;;;6.00;4.00;;;;;6.02;98.51;100424.34;114792;241;161131;-54
2024/02/20 03:42:17;;;;;;;;;6.33;5.00;;;;;6.02;98.39;100426.63;114257;243;41355;-51
2024/02/20 03:44:51;;;;;;;;;8.00;6.00;;;;;6.01;98.36;100427.92;114406;242;161647;-50
2024/02/20 03:47:24;;;;;;;;;9.00;5.00;;;;;5.97;98.50;100429.88;114595;243;39035;-50
2024/02/20 03:49:58;;;;;;;;;7.00;5.00;;;;;5.96;98.47;100431.85;114425;241;161516;-50
2024/02/20 03:52:32;;;;;;;;;7.00;5.00;;;;;5.96;98.46;100433.13;114576;242;39325;-50
2024/02/20 03:55:08;;;;;;;;;10.00;7.00;;;;;5.97;98.41;100437.38;114587;242;39318;-50
2024/02/20 03:57:41;;;;;;;;;7.00;5.00;;;;;5.96;98.52;100436.20;114414;241;161965;-50
2024/02/20 04:00:17;;;;;;;;;7.00;5.00;;;;;6.02;98.67;100435.54;114595;242;40801;-50
2024/02/20 04:02:53;;;;;;;;;8.00;6.00;;;;;6.01;98.58;100436.60;114452;241;161385;-51
2024/02/20 04:05:27;;;;;;;;;9.00;7.00;;;;;5.99;98.55;100439.48;114612;243;41501;-51
2024/02/20 04:08:01;;;;;;;;;6.00;5.00;;;;;5.98;98.57;100439.17;114452;241;161457;-51
2024/02/20 04:10:35;;;;;;;;;9.00;7.00;;;;;5.95;98.70;100442.00;114540;242;40704;-51
2024/02/20 04:13:10;;;;;;;;;7.33;6.00;;;;;5.98;98.71;100442.45;114047;243;436055;-53
2024/02/20 04:15:44;;;;;;;;;8.00;6.00;;;;;6.00;98.71;100443.27;114349;243;161492;-52
2024/02/20 04:18:18;;;;;;;;;8.25;6.50;;;;;5.98;98.83;100442.25;114551;243;39898;-51
2024/02/20 04:20:52;;;;;;;;;8.00;6.00;;;;;6.02;98.82;100441.50;114408;241;162189;-50
2024/02/20 04:23:26;;;;;;;;;6.00;5.00;;;;;6.06;98.73;100441.39;114524;242;39129;-53
2024/02/20 04:26:00;;;;;;;;;8.00;7.00;;;;;6.07;98.77;100439.48;114421;241;161298;-53
2024/02/20 04:28:35;;;;;;;;;10.00;8.00;;;;;6.08;98.63;100443.72;114537;242;40145;-53
2024/02/20 04:31:12;;;;;;;;;8.00;6.00;;;;;6.08;98.66;100443.55;114538;243;40663;-53
2024/02/20 04:33:46;;;;;;;;;13.00;9.00;;;;;6.08;98.78;100447.04;114392;243;161144;-51
2024/02/20 04:36:20;;;;;;;;;7.00;5.00;;;;;6.05;98.80;100448.33;114552;242;40001;-51
2024/02/20 04:38:57;;;;;;;;;10.00;6.00;;;;;6.01;98.88;100449.83;114464;241;161271;-51
2024/02/20 04:41:31;;;;;;;;;8.00;6.00;;;;;6.04;98.87;100449.06;114548;243;40271;-51
2024/02/20 04:44:05;;;;;;;;;12.75;6.25;;;;;6.05;98.79;100448.54;114427;241;161471;-50
2024/02/20 04:46:39;;;;;;;;;7.00;5.00;;;;;6.09;98.75;100450.06;114560;243;39488;-53
2024/02/20 04:49:13;;;;;;;;;9.00;7.00;;;;;6.10;98.85;100447.98;114623;242;39396;-54
2024/02/20 04:51:47;;;;;;;;;15.50;11.00;;;;;6.08;98.77;100448.20;114414;241;161257;-51
2024/02/20 04:54:21;;;;;;;;;10.75;8.00;;;;;6.04;98.91;100452.48;114572;242;41547;-50
2024/02/20 04:56:55;;;;;;;;;10.00;7.75;;;;;6.03;98.92;100453.17;114423;241;161388;-54
2024/02/20 04:59:29;;;;;;;;;9.00;6.00;;;;;6.02;99.09;100457.39;114574;243;41162;-54
2024/02/20 05:02:03;;;;;;;;;10.00;7.00;;;;;6.03;99.11;100454.41;114429;241;161973;-54
2024/02/20 05:04:37;;;;;;;;;9.00;7.00;;;;;6.01;99.01;100457.27;114513;243;40533;-54
2024/02/20 05:07:11;;;;;;;;;7.33;5.33;;;;;6.03;98.99;100459.02;114549;242;39569;-51
2024/02/20 05:09:46;;;;;;;;;8.00;5.75;;;;;6.02;98.89;100463.09;114411;241;161111;-51
2024/02/20 05:12:20;;;;;;;;;7.00;6.00;;;;;6.00;98.84;100463.31;114558;243;40043;-51
2024/02/20 05:14:54;;;;;;;;;9.00;6.67;;;;;6.00;98.92;100464.86;114391;243;161216;-51
2024/02/20 05:17:28;;;;;;;;;5.00;4.00;;;;;6.00;98.82;100471.69;114541;242;39823;-52
2024/02/20 05:20:02;;;;;;;;;7.00;5.00;;;;;6.02;98.74;100473.27;114408;241;161418;-52
2024/02/20 05:22:36;;;;;;;;;7.25;5.25;;;;;6.01;98.86;100474.58;114537;242;40867;-52
2024/02/20 05:25:12;;;;;;;;;5.00;4.00;;;;;6.00;98.72;100475.05;114589;243;39571;-53
2024/02/20 05:27:46;;;;;;;;;6.00;5.00;;;;;6.00;98.80;100480.77;114397;241;161244;-51
2024/02/20 05:30:20;;;;;;;;;5.00;4.00;;;;;6.00;98.83;100482.02;114582;242;40110;-51
2024/02/20 05:32:54;;;;;;;;;7.00;4.00;;;;;5.97;98.85;100484.14;114444;241;161593;-50
2024/02/20 05:35:28;;;;;;;;;5.00;4.00;;;;;5.94;98.98;100475.85;114578;242;39732;-51
2024/02/20 05:38:05;;;;;;;;;9.00;6.00;;;;;5.91;99.02;100479.29;114441;241;161470;-51
2024/02/20 05:40:39;;;;;;;;;6.00;4.00;;;;;5.90;98.98;100478.08;114556;242;39798;-51
2024/02/20 05:43:13;;;;;;;;;4.00;3.00;;;;;5.91;98.95;100475.69;114567;242;40229;-56
2024/02/20 05:45:47;;;;;;;;;7.00;5.00;;;;;5.89;98.99;100474.23;114436;241;161772;-56
2024/02/20 05:48:21;;;;;;;;;4.25;4.00;;;;;5.91;98.93;100478.67;114544;242;40474;-54
2024/02/20 05:50:55;;;;;;;;;8.00;6.00;;;;;5.93;99.03;100480.73;114376;241;161414;-54
2024/02/20 05:53:29;;;;;;;;;5.75;4.75;;;;;6.01;99.05;100480.14;114598;243;39501;-55
2024/02/20 05:56:03;;;;;;;;;8.25;6.00;;;;;6.00;99.05;100483.33;114487;241;161361;-55
2024/02/20 05:58:37;;;;;;;;;8.00;6.00;;;;;5.99;99.17;100486.46;114521;243;39791;-53
2024/02/20 06:01:13;;;;;;;;;9.00;6.00;;;;;6.01;99.23;100485.91;114568;243;40027;-53
2024/02/20 06:03:47;;;;;;;;;8.00;6.00;;;;;6.07;99.25;100484.34;114455;241;161320;-54
2024/02/20 06:06:21;;;;;;;;;9.00;6.00;;;;;6.10;99.09;100488.05;114601;243;40538;-52
2024/02/20 06:08:55;;;;;;;;;10.50;7.25;;;;;6.06;99.19;100492.17;114394;242;161196;-52
2024/02/20 06:11:29;;;;;;;;;10.33;8.00;;;;;6.13;99.37;100484.78;114560;242;40976;-51
2024/02/20 06:14:03;;;;;;;;;11.00;8.00;;;;;6.16;99.37;100491.10;114485;241;161534;-50
2024/02/20 06:16:37;;;;;;;;;7.00;5.25;;;;;6.22;99.37;100494.19;114551;242;39307;-53
2024/02/20 06:19:11;;;;;;;;;10.25;6.50;;;;;6.27;99.30;100491.17;114553;243;39810;-53
2024/02/20 06:21:45;;;;;;;;;10.25;7.25;;;;;6.31;99.31;100495.05;114418;241;161501;-54
2024/02/20 06:24:19;;;;;;;;;9.00;8.00;;;;;6.29;99.25;100498.30;114571;242;40405;-50
2024/02/20 06:26:53;;;;;;;;;11.50;8.00;;;;;6.25;99.35;100499.27;114744;241;160874;-50
2024/02/20 06:29:27;;;;;;;;;12.00;9.00;;;;;6.25;99.37;100494.13;114689;243;39851;-49
2024/02/20 06:32:01;;;;;;;;;8.50;7.25;;;;;6.24;99.40;100498.73;114450;241;161814;-52
2024/02/20 06:34:36;;;;;;;;;12.00;9.00;;;;;6.27;99.36;100499.38;114637;242;41708;-51
2024/02/20 06:37:10;;;;;;;;;9.75;7.25;;;;;6.28;99.39;100496.63;114573;242;39821;-51
2024/02/20 06:39:44;;;;;;;;;8.25;6.50;;;;;6.32;99.38;100495.68;114379;239;161113;-51
2024/02/20 06:42:20;;;;;;;;;11.00;9.00;;;;;6.34;99.35;100501.34;114541;242;40021;-52
2024/02/20 06:44:54;;;;;;;;;9.00;6.00;;;;;6.34;99.37;100504.17;114395;239;161558;-51
2024/02/20 06:47:29;;;;;;;;;10.50;9.00;;;;;6.35;99.40;100505.36;114530;243;40160;-54
2024/02/20 06:50:04;;;;;;;;;9.00;7.00;;;;;6.38;99.40;100506.33;114522;241;161848;-54
2024/02/20 06:52:38;;;;;;;;;9.33;6.00;;;;;6.43;99.33;100513.81;114977;243;40257;-53
2024/02/20 06:55:13;;;;;;;;;8.75;5.75;;;;;6.44;99.23;100516.75;114572;243;39069;-53
2024/02/20 06:57:47;;;;;;;;;9.00;7.00;;;;;6.44;99.32;100521.74;114855;241;161362;-50
2024/02/20 07:00:22;;;;;;;;;6.50;5.75;;;;;6.45;99.17;100525.17;114575;243;39322;-49
2024/02/20 07:02:57;;;;;;;;;9.00;7.25;;;;;6.47;99.16;100523.63;114848;241;161401;-49
2024/02/20 07:05:31;;;;;;;;;8.00;6.00;;;;;6.44;99.06;100521.44;114320;243;39777;-50
2024/02/20 07:08:06;;;;;;;;;8.00;6.00;;;;;6.39;99.15;100523.19;114459;241;160624;-51
2024/02/20 07:10:40;;;;;;;;;6.00;5.00;;;;;6.36;99.16;100524.39;114539;243;39589;-52
2024/02/20 07:13:14;;;;;;;;;5.25;4.75;;;;;6.35;99.21;100524.52;114618;243;40018;-55
2024/02/20 07:15:48;;;;;;;;;6.25;5.00;;;;;6.37;99.25;100524.78;114440;239;161070;-53
2024/02/20 07:18:21;;;;;;;;;7.00;6.00;;;;;6.36;99.26;100524.41;114598;242;40882;-50
2024/02/20 07:20:55;;;;;;;;;7.00;5.00;;;;;6.40;99.32;100528.76;114411;243;161233;-49
2024/02/20 07:23:29;;;;;;;;;5.25;4.00;;;;;6.45;99.27;100530.38;114556;243;40266;-49
2024/02/20 07:26:03;;;;;;;;;7.00;5.00;;;;;6.49;99.15;100531.55;114409;239;161560;-49
2024/02/20 07:28:37;;;;;;;;;5.67;4.00;;;;;6.54;99.06;100530.67;114499;242;40490;-52
2024/02/20 07:31:11;;;;;;;;;4.75;4.00;;;;;6.55;99.05;100529.72;114549;243;40449;-51
2024/02/20 07:33:46;;;;;;;;;7.00;5.00;;;;;6.54;99.17;100528.52;114402;239;161118;-59
2024/02/20 07:36:20;;;;;;;;;5.50;4.75;;;;;6.56;99.24;100525.92;114583;243;39961;-53
2024/02/20 07:38:54;;;;;;;;;4.00;4.00;;;;;6.57;99.35;100530.85;114256;242;161172;-54
2024/02/20 07:41:27;;;;;;;;;9.00;6.00;;;;;6.63;99.15;100532.14;114226;244;39325;-51
2024/02/20 07:44:02;;;;;;;;;7.00;4.00;;;;;6.64;99.05;100532.55;114104;242;162316;-50
2024/02/20 07:46:37;;;;;;;;;4.50;3.00;;;;;6.70;98.95;100537.15;114236;244;39739;-54
2024/02/20 07:49:10;;;;;;;;;7.00;4.00;;;;;6.69;98.98;100536.71;114344;244;40625;-54
2024/02/20 07:51:44;;;;;;;;;5.00;4.00;;;;;6.65;99.02;100539.25;114105;242;161371;-54
2024/02/20 07:54:18;;;;;;;;;7.00;6.00;;;;;6.63;99.19;100536.96;114274;244;39377;-54
2024/02/20 07:56:52;;;;;;;;;7.00;6.00;;;;;6.68;99.04;100539.10;114091;242;160680;-53
2024/02/20 07:59:26;;;;;;;;;8.00;5.00;;;;;6.68;98.79;100543.40;114254;243;39666;-53
2024/02/20 08:02:07;;;;;;;;;5.00;4.00;;;;;6.63;99.06;100543.73;114122;242;161024;-53
2024/02/20 08:04:42;;;;;;;;;3.25;3.00;;;;;6.66;98.99;100542.55;114179;244;39549;-53
2024/02/20 08:07:16;;;;;;;;;7.00;5.00;;;;;6.71;99.06;100539.14;114243;244;39733;-51
2024/02/20 08:09:55;;;;;;;;;4.50;4.00;;;;;6.77;98.98;100544.58;114078;242;160970;-52
2024/02/20 08:12:28;;;;;;;;;5.00;4.00;;;;;6.88;98.78;100539.62;114205;244;43028;-54
2024/02/20 08:15:02;;;;;;;;;4.00;3.00;;;;;6.89;98.70;100541.73;114103;242;162449;-54
2024/02/20 08:17:36;;;;;;;;;4.00;3.00;;;;;6.90;98.66;100537.31;114230;244;39534;-51
2024/02/20 08:20:13;;;;;;;;;4.67;4.00;;;;;6.95;98.58;100542.44;114092;242;162530;-50
2024/02/20 08:22:47;;;;;;;;;5.00;5.00;;;;;6.97;98.68;100535.12;114235;244;39315;-54
2024/02/20 08:25:21;;;;;;;;;5.00;4.00;;;;;6.98;98.62;100531.94;114239;243;39381;-55
2024/02/20 08:27:54;;;;;;;;;7.00;5.00;;;;;7.03;98.44;100531.55;114119;242;161271;-54
2024/02/20 08:30:29;;;;;;;;;4.33;3.00;;;;;7.07;98.44;100532.94;114232;244;40119;-53
2024/02/20 08:33:03;;;;;;;;;5.25;4.00;;;;;7.12;98.47;100532.58;114127;242;161250;-53
2024/02/20 08:35:37;;;;;;;;;5.00;4.00;;;;;7.22;98.29;100534.52;114503;243;39801;-52
2024/02/20 08:38:11;;;;;;;;;4.75;4.00;;;;;7.31;97.95;100534.98;114463;241;160948;-55
2024/02/20 08:40:45;;;;;;;;;7.25;5.00;;;;;7.37;97.85;100537.06;114562;243;39531;-55
2024/02/20 08:43:20;;;;;;;;;6.67;5.67;;;;;7.47;97.82;100541.31;114577;243;40048;-54
2024/02/20 08:45:53;;;;;;;;;7.00;5.00;;;;;7.49;97.92;100540.89;114386;239;160432;-54
2024/02/20 08:48:28;;;;;;;;;3.00;3.00;;;;;7.54;97.88;100543.27;114569;242;39514;-55
2024/02/20 08:51:01;;;;;;;;;5.00;4.00;;;;;7.60;97.86;100544.16;114401;239;161513;-55
2024/02/20 08:53:35;;;;;;;;;5.00;4.00;;;;;7.67;97.83;100544.42;114544;242;39005;-55
2024/02/20 08:56:10;;;;;;;;;8.00;6.00;;;;;7.69;97.75;100547.26;114429;239;161612;-55
2024/02/20 08:58:44;;;;;;;;;8.00;6.00;;;;;7.72;97.76;100548.27;114520;243;39919;-51
2024/02/20 09:01:19;;;;;;;;;6.00;4.25;;;;;7.83;97.61;100545.38;114569;242;40226;-53
2024/02/20 09:03:54;;;;;;;;;5.00;4.00;;;;;7.95;97.58;100546.92;114143;242;160839;-52
2024/02/20 09:06:27;;;;;;;;;5.75;4.00;;;;;8.08;97.66;100548.56;114561;243;39727;-53
2024/02/20 09:09:01;;;;;;;;;7.00;5.00;;;;;8.21;97.34;100547.58;114426;239;160850;-54
2024/02/20 09:11:36;;;;;;;;;7.00;5.25;;;;;8.27;97.19;100548.38;114561;242;41029;-54
2024/02/20 09:14:09;;;;;;;;;8.00;6.00;;;;;8.39;97.01;100551.77;114462;240;160879;-55
2024/02/20 09:16:43;;;;;;;;;7.00;6.00;;;;;8.42;96.68;100548.17;114552;242;39310;-53
2024/02/20 09:19:18;;;;;;;;;8.00;6.00;;;;;8.38;96.68;100555.58;114581;243;41024;-53
2024/02/20 09:21:53;;;;;;;;;4.00;4.00;;;;;8.45;96.72;100552.64;114417;241;161258;-52
2024/02/20 09:24:27;;;;;;;;;5.00;3.00;;;;;8.48;96.76;100556.09;114569;242;39678;-52
2024/02/20 09:27:03;;;;;;;;;3.50;3.25;;;;;8.52;96.31;100558.00;114462;241;162273;-54
2024/02/20 09:29:37;;;;;;;;;6.00;4.00;;;;;8.50;96.22;100559.38;114552;242;39257;-54
2024/02/20 09:32:13;;;;;;;;;5.00;4.00;;;;;8.50;96.05;100562.18;114459;241;161619;-51
2024/02/20 09:34:47;;;;;;;;;5.00;4.33;;;;;8.50;95.85;100563.60;114551;243;40156;-51
2024/02/20 09:37:23;;;;;;;;;8.33;6.67;;;;;8.50;95.62;100568.17;114556;243;40023;-52
2024/02/20 09:39:57;;;;;;;;;7.00;6.00;;;;;8.51;95.56;100568.68;114884;241;160140;-52
2024/02/20 09:42:38;;;;;;;;;6.25;6.00;;;;;8.44;95.37;100568.52;114553;243;39448;-51
2024/02/20 09:45:19;;;;;;;;;5.00;4.00;;;;;8.33;95.19;100567.33;114112;243;161136;-51
2024/02/20 09:47:54;;;;;;;;;5.75;4.00;;;;;8.13;95.06;100568.05;114522;243;39020;-52
2024/02/20 09:50:30;;;;;;;;;6.00;4.25;;;;;8.07;95.15;100572.50;114352;241;161134;-51
2024/02/20 09:53:04;;;;;;;;;3.67;3.00;;;;;8.08;95.05;100576.31;114546;243;39996;-50
2024/02/20 09:55:38;;;;;;;;;6.33;6.00;;;;;7.99;94.62;100571.23;114268;241;162610;-50
2024/02/20 09:58:12;;;;;;;;;5.00;4.67;;;;;7.87;94.72;100575.06;114290;244;39285;-51
2024/02/20 10:00:49;;;;;;;;;7.00;5.00;;;;;7.82;94.77;100577.69;114260;244;39977;-51
2024/02/20 10:03:26;;;;;;;;;8.00;6.00;;;;;7.87;94.73;100579.58;114175;241;160687;-52
2024/02/20 10:06:03;;;;;;;;;4.00;3.00;;;;;7.96;94.82;100582.86;114248;244;39114;-52
2024/02/20 10:08:37;;;;;;;;;6.00;4.00;;;;;8.06;94.99;100587.81;114163;241;161449;-55
2024/02/20 10:11:12;;;;;;;;;6.00;4.00;;;;;8.24;95.32;100586.62;114221;244;41157;-55
2024/02/20 10:13:51;;;;;;;;;5.00;3.00;;;;;8.47;95.37;100577.33;114227;241;161742;-52
2024/02/20 10:16:27;;;;;;;;;4.75;4.00;;;;;8.77;95.35;100581.63;114317;243;39299;-55
2024/02/20 10:19:04;;;;;;;;;3.00;3.00;;;;;9.00;94.78;100579.09;114358;244;39376;-55
2024/02/20 10:21:38;;;;;;;;;7.00;5.75;;;;;8.94;94.19;100574.86;114148;243;160959;-53
2024/02/20 10:24:15;;;;;;;;;5.00;4.00;;;;;8.94;93.73;100578.44;114369;244;39397;-54
2024/02/20 10:26:49;;;;;;;;;7.00;6.00;;;;;8.92;93.38;100581.73;114216;241;160872;-51
2024/02/20 10:29:28;;;;;;;;;6.00;4.00;;;;;8.93;93.20;100579.93;114373;244;39519;-51
2024/02/20 10:32:02;;;;;;;;;4.75;4.00;;;;;8.89;93.21;100586.50;114221;241;160806;-53
2024/02/20 10:34:36;;;;;;;;;7.25;4.00;;;;;8.82;93.18;100583.30;114456;243;39906;-53
2024/02/20 10:37:10;;;;;;;;;5.00;4.67;;;;;8.80;92.91;100581.66;114575;242;39505;-51
2024/02/20 10:39:44;;;;;;;;;5.00;4.00;;;;;8.76;92.64;100583.75;114384;240;162399;-51
2024/02/20 10:42:18;;;;;;;;;4.00;4.00;;;;;8.75;92.06;100583.52;114564;243;39733;-54
2024/02/20 10:44:53;;;;;;;;;4.00;4.00;;;;;8.77;92.06;100581.87;114411;239;161677;-55
2024/02/20 10:47:30;;;;;;;;;4.25;3.25;;;;;8.77;91.65;100580.21;114540;242;40146;-53
2024/02/20 10:50:08;;;;;;;;;4.00;4.00;;;;;8.76;91.36;100584.46;114409;239;159874;-53
2024/02/20 10:52:44;;;;;;;;;5.00;4.00;;;;;8.73;91.37;100577.64;114535;243;40180;-53
2024/02/20 10:55:19;;;;;;;;;7.00;5.00;;;;;8.75;91.62;100586.59;114580;243;39779;-53
2024/02/20 10:57:54;;;;;;;;;5.50;3.00;;;;;8.91;91.40;100582.94;114452;239;160441;-51
2024/02/20 11:00:30;;;;;;;;;9.00;5.50;;;;;9.05;90.95;100577.20;114753;243;41836;-52
2024/02/20 11:03:06;;;;;;;;;6.00;5.00;;;;;9.24;91.12;100584.41;114442;239;161498;-51
2024/02/20 11:05:40;;;;;;;;;5.00;5.00;;;;;9.38;90.81;100575.17;114588;243;40700;-52
2024/02/20 11:08:14;;;;;;;;;5.00;4.00;;;;;9.33;90.31;100576.10;114440;239;161517;-54
2024/02/20 11:10:48;;;;;;;;;4.00;3.00;;;;;9.28;89.78;100577.16;114560;243;39602;-54
2024/02/20 11:13:27;;;;;;;;;7.00;6.00;;;;;9.38;89.85;100574.27;114564;243;40674;-50
2024/02/20 11:16:14;;;;;;;;;8.50;6.50;;;;;9.49;90.04;100578.70;114261;242;39424;-50
2024/02/20 11:18:56;;;;;;;;;9.00;7.00;;;;;9.64;89.65;100574.80;114538;243;40931;-53
2024/02/20 11:21:31;;;;;;;;;6.67;5.67;;;;;9.69;88.92;100576.14;114459;242;160596;-52
2024/02/20 11:24:16;;;;;;;;;7.00;4.50;;;;;9.71;89.15;100576.84;114529;243;40495;-52
2024/02/20 11:27:00;;;;;;;;;6.75;6.00;;;;;9.79;88.96;100574.78;114512;241;160887;-52
2024/02/20 11:29:35;;;;;;;;;5.00;4.00;;;;;9.91;89.09;100576.23;114586;243;40644;-51
2024/02/20 11:32:17;;;;;;;;;7.25;6.00;;;;;10.05;88.86;100569.89;114461;242;160820;-53
2024/02/20 11:34:51;;;;;;;;;8.00;7.00;;;;;10.07;88.80;100572.27;114266;244;39773;-53
2024/02/20 11:37:25;;;;;;;;;7.25;5.25;;;;;10.10;88.35;100570.39;114234;244;39650;-54
2024/02/20 11:39:59;;;;;;;;;7.50;6.00;;;;;10.05;87.72;100570.27;114526;241;160664;-53
2024/02/20 11:42:33;;;;;;;;;8.00;6.00;;;;;9.86;87.17;100563.20;114575;243;39530;-51
2024/02/20 11:45:19;;;;;;;;;7.00;5.00;;;;;9.58;86.71;100565.13;114211;242;160739;-51
2024/02/20 11:48:08;;;;;;;;;7.25;6.00;;;;;9.35;86.71;100566.92;114228;244;39282;-54
2024/02/20 11:50:44;;;;;;;;;6.00;4.00;;;;;9.15;86.72;100562.51;114425;241;160601;-54
2024/02/20 11:53:19;;;;;;;;;10.00;7.00;;;;;9.06;86.80;100560.73;114689;243;39231;-53
2024/02/20 11:55:55;;;;;;;;;7.00;5.00;;;;;9.02;86.90;100561.33;114479;241;161314;-53
2024/02/20 11:58:29;;;;;;;;;4.00;3.00;;;;;9.10;87.02;100562.85;114839;243;39521;-50
2024/02/20 12:01:05;;;;;;;;;5.00;4.00;;;;;9.18;87.26;100554.29;114561;243;39752;-50
2024/02/20 12:03:42;;;;;;;;;5.00;5.00;;;;;9.29;87.14;100556.23;114139;242;161366;-51